sensor_id;sensor_type;location;lat;lon;timestamp;temperature;humidity
35700;DHT22;21818;51.078;12.108;2022-09-09T00:04:48;20.10;87.30
35700;DHT22;21818;51.078;12.108;2022-09-09T00:07:43;20.10;87.40
35700;DHT22;21818;51.078;12.108;2022-09-09T00:10:27;20.10;87.40
35700;DHT22;21818;51.078;12.108;2022-09-09T00:13:02;20.10;87.40
35700;DHT22;21818;51.078;12.108;2022-09-09T00:15:39;20.10;87.30
35700;DHT22;21818;51.078;12.108;2022-09-09T00:18:32;20.10;87.30
35700;DHT22;21818;51.078;12.108;2022-09-09T00:21:15;20.10;87.40
35700;DHT22;21818;51.078;12.108;2022-09-09T00:23:53;20.00;87.40
35700;DHT22;21818;51.078;12.108;2022-09-09T00:31:57;20.00;87.50
35700;DHT22;21818;51.078;12.108;2022-09-09T00:34:26;20.00;87.40
35700;DHT22;21818;51.078;12.108;2022-09-09T00:36:53;20.00;87.40
35700;DHT22;21818;51.078;12.108;2022-09-09T00:39:34;20.00;87.30
35700;DHT22;21818;51.078;12.108;2022-09-09T00:42:17;20.00;87.30
35700;DHT22;21818;51.078;12.108;2022-09-09T00:46:04;20.00;87.40
35700;DHT22;21818;51.078;12.108;2022-09-09T00:47:57;20.00;87.50
35700;DHT22;21818;51.078;12.108;2022-09-09T00:53:19;19.90;87.50
35700;DHT22;21818;51.078;12.108;2022-09-09T00:56:25;19.90;87.50
35700;DHT22;21818;51.078;12.108;2022-09-09T00:59:11;19.90;87.60
35700;DHT22;21818;51.078;12.108;2022-09-09T01:01:40;19.80;87.70
35700;DHT22;21818;51.078;12.108;2022-09-09T01:04:12;19.90;87.60
35700;DHT22;21818;51.078;12.108;2022-09-09T01:06:41;19.90;87.60
35700;DHT22;21818;51.078;12.108;2022-09-09T01:12:41;19.80;87.60
35700;DHT22;21818;51.078;12.108;2022-09-09T01:15:12;19.80;87.60
35700;DHT22;21818;51.078;12.108;2022-09-09T01:20:13;19.70;87.60
35700;DHT22;21818;51.078;12.108;2022-09-09T01:28:34;19.80;87.70
35700;DHT22;21818;51.078;12.108;2022-09-09T01:31:03;19.80;87.70
35700;DHT22;21818;51.078;12.108;2022-09-09T01:33:29;19.70;87.80
35700;DHT22;21818;51.078;12.108;2022-09-09T01:36:22;19.80;87.80
35700;DHT22;21818;51.078;12.108;2022-09-09T01:38:49;19.70;87.70
35700;DHT22;21818;51.078;12.108;2022-09-09T01:41:15;19.70;87.70
35700;DHT22;21818;51.078;12.108;2022-09-09T01:43:40;19.80;87.70
35700;DHT22;21818;51.078;12.108;2022-09-09T01:46:06;19.80;87.60
35700;DHT22;21818;51.078;12.108;2022-09-09T01:48:33;19.70;87.80
35700;DHT22;21818;51.078;12.108;2022-09-09T01:50:58;19.70;87.60
35700;DHT22;21818;51.078;12.108;2022-09-09T01:53:24;19.80;87.70
35700;DHT22;21818;51.078;12.108;2022-09-09T01:59:25;19.70;87.60
35700;DHT22;21818;51.078;12.108;2022-09-09T02:04:39;19.70;87.70
35700;DHT22;21818;51.078;12.108;2022-09-09T02:07:08;19.70;87.60
35700;DHT22;21818;51.078;12.108;2022-09-09T02:09:41;19.70;87.60
35700;DHT22;21818;51.078;12.108;2022-09-09T02:12:13;19.70;87.70
35700;DHT22;21818;51.078;12.108;2022-09-09T02:14:42;19.70;87.80
35700;DHT22;21818;51.078;12.108;2022-09-09T02:17:15;19.70;87.70
35700;DHT22;21818;51.078;12.108;2022-09-09T02:19:51;19.70;87.80
35700;DHT22;21818;51.078;12.108;2022-09-09T02:22:21;19.70;88.00
35700;DHT22;21818;51.078;12.108;2022-09-09T02:24:49;19.70;87.70
35700;DHT22;21818;51.078;12.108;2022-09-09T02:27:18;19.70;87.70
35700;DHT22;21818;51.078;12.108;2022-09-09T02:29:45;19.60;87.60
35700;DHT22;21818;51.078;12.108;2022-09-09T02:32:15;19.60;87.80
35700;DHT22;21818;51.078;12.108;2022-09-09T02:34:49;19.60;87.70
35700;DHT22;21818;51.078;12.108;2022-09-09T02:37:18;19.60;87.70
35700;DHT22;21818;51.078;12.108;2022-09-09T02:39:44;19.60;87.70
35700;DHT22;21818;51.078;12.108;2022-09-09T02:42:10;19.60;87.60
35700;DHT22;21818;51.078;12.108;2022-09-09T02:44:35;19.60;87.60
35700;DHT22;21818;51.078;12.108;2022-09-09T02:47:12;19.60;87.60
35700;DHT22;21818;51.078;12.108;2022-09-09T02:55:20;19.60;87.70
35700;DHT22;21818;51.078;12.108;2022-09-09T02:57:49;19.60;87.70
35700;DHT22;21818;51.078;12.108;2022-09-09T03:00:15;19.60;87.70
35700;DHT22;21818;51.078;12.108;2022-09-09T03:02:41;19.60;87.80
35700;DHT22;21818;51.078;12.108;2022-09-09T03:05:07;19.60;87.80
35700;DHT22;21818;51.078;12.108;2022-09-09T03:07:33;19.50;87.80
35700;DHT22;21818;51.078;12.108;2022-09-09T03:09:59;19.50;88.00
35700;DHT22;21818;51.078;12.108;2022-09-09T03:12:24;19.50;88.00
35700;DHT22;21818;51.078;12.108;2022-09-09T03:14:50;19.50;88.00
35700;DHT22;21818;51.078;12.108;2022-09-09T03:17:16;19.50;87.90
35700;DHT22;21818;51.078;12.108;2022-09-09T03:19:42;19.50;88.00
35700;DHT22;21818;51.078;12.108;2022-09-09T03:22:10;19.50;87.90
35700;DHT22;21818;51.078;12.108;2022-09-09T03:24:36;19.50;87.80
35700;DHT22;21818;51.078;12.108;2022-09-09T03:27:02;19.50;87.80
35700;DHT22;21818;51.078;12.108;2022-09-09T03:29:27;19.50;87.80
35700;DHT22;21818;51.078;12.108;2022-09-09T03:31:53;19.40;87.90
35700;DHT22;21818;51.078;12.108;2022-09-09T03:34:19;19.40;87.80
35700;DHT22;21818;51.078;12.108;2022-09-09T03:36:45;19.50;87.70
35700;DHT22;21818;51.078;12.108;2022-09-09T03:39:11;19.50;87.60
35700;DHT22;21818;51.078;12.108;2022-09-09T03:41:37;19.50;87.50
35700;DHT22;21818;51.078;12.108;2022-09-09T03:44:03;19.50;87.60
35700;DHT22;21818;51.078;12.108;2022-09-09T03:46:28;19.50;88.10
35700;DHT22;21818;51.078;12.108;2022-09-09T03:48:54;19.50;87.60
35700;DHT22;21818;51.078;12.108;2022-09-09T03:51:20;19.40;87.60
35700;DHT22;21818;51.078;12.108;2022-09-09T03:53:47;19.50;87.80
35700;DHT22;21818;51.078;12.108;2022-09-09T03:56:12;19.50;87.60
35700;DHT22;21818;51.078;12.108;2022-09-09T03:58:38;19.50;87.60
35700;DHT22;21818;51.078;12.108;2022-09-09T04:01:10;19.50;87.60
35700;DHT22;21818;51.078;12.108;2022-09-09T04:03:36;19.40;87.60
35700;DHT22;21818;51.078;12.108;2022-09-09T04:06:03;19.40;87.80
35700;DHT22;21818;51.078;12.108;2022-09-09T04:08:29;19.30;87.80
35700;DHT22;21818;51.078;12.108;2022-09-09T04:10:59;19.40;87.80
35700;DHT22;21818;51.078;12.108;2022-09-09T04:13:25;19.30;87.90
35700;DHT22;21818;51.078;12.108;2022-09-09T04:15:57;19.30;88.00
35700;DHT22;21818;51.078;12.108;2022-09-09T04:18:23;19.40;88.00
35700;DHT22;21818;51.078;12.108;2022-09-09T04:20:50;19.30;87.80
35700;DHT22;21818;51.078;12.108;2022-09-09T04:23:16;19.30;87.90
35700;DHT22;21818;51.078;12.108;2022-09-09T04:25:45;19.30;88.00
35700;DHT22;21818;51.078;12.108;2022-09-09T04:28:12;19.30;88.00
35700;DHT22;21818;51.078;12.108;2022-09-09T04:30:38;19.30;88.20
35700;DHT22;21818;51.078;12.108;2022-09-09T04:33:05;19.30;88.20
35700;DHT22;21818;51.078;12.108;2022-09-09T04:35:31;19.30;88.10
35700;DHT22;21818;51.078;12.108;2022-09-09T04:37:57;19.30;88.20
35700;DHT22;21818;51.078;12.108;2022-09-09T04:40:22;19.40;88.10
35700;DHT22;21818;51.078;12.108;2022-09-09T04:42:48;19.40;88.00
35700;DHT22;21818;51.078;12.108;2022-09-09T04:45:15;19.40;88.10
35700;DHT22;21818;51.078;12.108;2022-09-09T04:47:41;19.40;88.00
35700;DHT22;21818;51.078;12.108;2022-09-09T04:50:07;19.30;87.90
35700;DHT22;21818;51.078;12.108;2022-09-09T04:52:34;19.30;87.90
35700;DHT22;21818;51.078;12.108;2022-09-09T04:55:01;19.30;88.00
35700;DHT22;21818;51.078;12.108;2022-09-09T04:57:26;19.30;88.00
35700;DHT22;21818;51.078;12.108;2022-09-09T04:59:52;19.30;88.00
35700;DHT22;21818;51.078;12.108;2022-09-09T05:02:17;19.30;88.00
35700;DHT22;21818;51.078;12.108;2022-09-09T05:04:43;19.30;88.00
35700;DHT22;21818;51.078;12.108;2022-09-09T05:07:08;19.30;88.00
35700;DHT22;21818;51.078;12.108;2022-09-09T05:09:34;19.40;88.00
35700;DHT22;21818;51.078;12.108;2022-09-09T05:12:00;19.30;87.80
35700;DHT22;21818;51.078;12.108;2022-09-09T05:14:25;19.40;87.70
35700;DHT22;21818;51.078;12.108;2022-09-09T05:16:51;19.40;87.70
35700;DHT22;21818;51.078;12.108;2022-09-09T05:19:17;19.40;87.60
35700;DHT22;21818;51.078;12.108;2022-09-09T05:21:44;19.40;87.60
35700;DHT22;21818;51.078;12.108;2022-09-09T05:24:10;19.30;87.60
35700;DHT22;21818;51.078;12.108;2022-09-09T05:26:36;19.30;87.80
35700;DHT22;21818;51.078;12.108;2022-09-09T05:29:02;19.40;88.00
35700;DHT22;21818;51.078;12.108;2022-09-09T05:31:30;19.50;88.00
35700;DHT22;21818;51.078;12.108;2022-09-09T05:33:55;19.50;88.00
35700;DHT22;21818;51.078;12.108;2022-09-09T05:36:22;19.40;88.00
35700;DHT22;21818;51.078;12.108;2022-09-09T05:38:49;19.40;88.10
35700;DHT22;21818;51.078;12.108;2022-09-09T05:41:15;19.30;88.20
35700;DHT22;21818;51.078;12.108;2022-09-09T05:43:42;19.30;88.30
35700;DHT22;21818;51.078;12.108;2022-09-09T05:46:14;19.30;88.20
35700;DHT22;21818;51.078;12.108;2022-09-09T05:48:42;19.30;88.30
35700;DHT22;21818;51.078;12.108;2022-09-09T05:51:13;19.30;88.20
35700;DHT22;21818;51.078;12.108;2022-09-09T05:53:41;19.30;88.20
35700;DHT22;21818;51.078;12.108;2022-09-09T05:56:15;19.30;88.10
35700;DHT22;21818;51.078;12.108;2022-09-09T05:58:41;19.40;88.10
35700;DHT22;21818;51.078;12.108;2022-09-09T06:01:15;19.40;88.00
35700;DHT22;21818;51.078;12.108;2022-09-09T06:03:42;19.40;88.00
35700;DHT22;21818;51.078;12.108;2022-09-09T06:06:14;19.40;87.90
35700;DHT22;21818;51.078;12.108;2022-09-09T06:08:42;19.40;88.30
35700;DHT22;21818;51.078;12.108;2022-09-09T06:11:11;19.40;87.70
35700;DHT22;21818;51.078;12.108;2022-09-09T06:13:37;19.50;87.70
35700;DHT22;21818;51.078;12.108;2022-09-09T06:16:04;19.50;87.60
35700;DHT22;21818;51.078;12.108;2022-09-09T06:18:30;19.50;87.60
35700;DHT22;21818;51.078;12.108;2022-09-09T06:21:00;19.50;87.60
35700;DHT22;21818;51.078;12.108;2022-09-09T06:23:27;19.50;87.50
35700;DHT22;21818;51.078;12.108;2022-09-09T06:28:38;19.60;87.40
35700;DHT22;21818;51.078;12.108;2022-09-09T06:31:09;19.60;87.30
35700;DHT22;21818;51.078;12.108;2022-09-09T06:33:40;19.60;87.30
35700;DHT22;21818;51.078;12.108;2022-09-09T06:36:14;19.70;87.30
35700;DHT22;21818;51.078;12.108;2022-09-09T06:38:40;19.70;87.10
35700;DHT22;21818;51.078;12.108;2022-09-09T06:41:08;19.80;87.00
35700;DHT22;21818;51.078;12.108;2022-09-09T06:43:34;19.90;86.80
35700;DHT22;21818;51.078;12.108;2022-09-09T06:46:06;19.90;86.70
35700;DHT22;21818;51.078;12.108;2022-09-09T06:48:33;19.90;86.60
35700;DHT22;21818;51.078;12.108;2022-09-09T06:51:13;19.90;86.70
35700;DHT22;21818;51.078;12.108;2022-09-09T06:53:41;19.90;86.60
35700;DHT22;21818;51.078;12.108;2022-09-09T06:56:20;19.90;86.60
35700;DHT22;21818;51.078;12.108;2022-09-09T06:58:47;19.90;86.60
35700;DHT22;21818;51.078;12.108;2022-09-09T07:01:18;19.90;86.60
35700;DHT22;21818;51.078;12.108;2022-09-09T07:03:52;19.90;86.60
35700;DHT22;21818;51.078;12.108;2022-09-09T07:06:24;19.90;86.50
35700;DHT22;21818;51.078;12.108;2022-09-09T07:08:54;19.90;86.50
35700;DHT22;21818;51.078;12.108;2022-09-09T07:11:21;19.90;86.40
35700;DHT22;21818;51.078;12.108;2022-09-09T07:13:47;20.00;86.50
35700;DHT22;21818;51.078;12.108;2022-09-09T07:16:15;20.00;86.40
35700;DHT22;21818;51.078;12.108;2022-09-09T07:18:41;20.00;86.40
35700;DHT22;21818;51.078;12.108;2022-09-09T07:21:08;20.00;86.40
35700;DHT22;21818;51.078;12.108;2022-09-09T07:23:34;20.10;86.40
35700;DHT22;21818;51.078;12.108;2022-09-09T07:26:01;20.10;86.30
35700;DHT22;21818;51.078;12.108;2022-09-09T07:28:27;20.20;86.20
35700;DHT22;21818;51.078;12.108;2022-09-09T07:30:59;20.20;86.60
35700;DHT22;21818;51.078;12.108;2022-09-09T07:33:25;20.30;85.90
35700;DHT22;21818;51.078;12.108;2022-09-09T07:35:51;20.40;85.80
35700;DHT22;21818;51.078;12.108;2022-09-09T07:38:18;20.40;85.70
35700;DHT22;21818;51.078;12.108;2022-09-09T07:40:44;20.40;85.60
35700;DHT22;21818;51.078;12.108;2022-09-09T07:43:10;20.50;85.60
35700;DHT22;21818;51.078;12.108;2022-09-09T07:45:36;20.50;85.50
35700;DHT22;21818;51.078;12.108;2022-09-09T07:48:02;20.50;85.40
35700;DHT22;21818;51.078;12.108;2022-09-09T07:50:28;20.50;85.50
35700;DHT22;21818;51.078;12.108;2022-09-09T07:52:54;20.50;85.50
35700;DHT22;21818;51.078;12.108;2022-09-09T07:55:21;20.60;85.40
35700;DHT22;21818;51.078;12.108;2022-09-09T07:57:46;20.60;85.30
35700;DHT22;21818;51.078;12.108;2022-09-09T08:00:13;20.60;85.20
35700;DHT22;21818;51.078;12.108;2022-09-09T08:02:40;20.60;85.10
35700;DHT22;21818;51.078;12.108;2022-09-09T08:05:06;20.70;85.00
35700;DHT22;21818;51.078;12.108;2022-09-09T08:07:31;20.70;85.00
35700;DHT22;21818;51.078;12.108;2022-09-09T08:09:57;20.70;84.90
35700;DHT22;21818;51.078;12.108;2022-09-09T08:12:22;20.80;84.90
35700;DHT22;21818;51.078;12.108;2022-09-09T08:14:48;20.80;84.80
35700;DHT22;21818;51.078;12.108;2022-09-09T08:17:14;20.80;84.70
35700;DHT22;21818;51.078;12.108;2022-09-09T08:19:39;20.80;84.60
35700;DHT22;21818;51.078;12.108;2022-09-09T08:22:06;20.80;84.60
35700;DHT22;21818;51.078;12.108;2022-09-09T08:24:33;20.80;84.50
35700;DHT22;21818;51.078;12.108;2022-09-09T08:26:58;20.90;84.50
35700;DHT22;21818;51.078;12.108;2022-09-09T08:29:24;20.90;84.50
35700;DHT22;21818;51.078;12.108;2022-09-09T08:31:52;20.90;84.40
35700;DHT22;21818;51.078;12.108;2022-09-09T08:34:20;21.00;84.40
35700;DHT22;21818;51.078;12.108;2022-09-09T08:36:47;21.00;84.20
35700;DHT22;21818;51.078;12.108;2022-09-09T08:39:17;21.00;84.10
35700;DHT22;21818;51.078;12.108;2022-09-09T08:48:00;21.00;83.90
35700;DHT22;21818;51.078;12.108;2022-09-09T08:50:39;21.00;83.90
35700;DHT22;21818;51.078;12.108;2022-09-09T08:53:19;21.00;83.90
35700;DHT22;21818;51.078;12.108;2022-09-09T08:55:57;21.00;83.90
35700;DHT22;21818;51.078;12.108;2022-09-09T08:58:29;21.10;83.90
35700;DHT22;21818;51.078;12.108;2022-09-09T09:12:28;21.20;83.80
35700;DHT22;21818;51.078;12.108;2022-09-09T09:14:55;21.20;83.70
35700;DHT22;21818;51.078;12.108;2022-09-09T09:17:25;21.10;83.70
35700;DHT22;21818;51.078;12.108;2022-09-09T09:19:52;21.20;83.70
35700;DHT22;21818;51.078;12.108;2022-09-09T09:22:41;21.20;83.80
35700;DHT22;21818;51.078;12.108;2022-09-09T09:25:18;21.20;83.70
35700;DHT22;21818;51.078;12.108;2022-09-09T09:27:50;21.20;83.80
35700;DHT22;21818;51.078;12.108;2022-09-09T09:30:20;21.20;83.60
35700;DHT22;21818;51.078;12.108;2022-09-09T09:35:26;21.20;83.40
35700;DHT22;21818;51.078;12.108;2022-09-09T09:37:52;21.20;83.60
35700;DHT22;21818;51.078;12.108;2022-09-09T09:40:20;21.30;83.60
35700;DHT22;21818;51.078;12.108;2022-09-09T09:42:56;21.20;83.40
35700;DHT22;21818;51.078;12.108;2022-09-09T09:45:31;21.30;83.50
35700;DHT22;21818;51.078;12.108;2022-09-09T09:47:58;21.20;83.40
35700;DHT22;21818;51.078;12.108;2022-09-09T09:50:24;21.30;83.30
35700;DHT22;21818;51.078;12.108;2022-09-09T09:53:01;21.30;83.20
35700;DHT22;21818;51.078;12.108;2022-09-09T09:55:28;21.30;83.20
35700;DHT22;21818;51.078;12.108;2022-09-09T09:58:06;21.30;83.20
35700;DHT22;21818;51.078;12.108;2022-09-09T10:00:48;21.30;83.10
35700;DHT22;21818;51.078;12.108;2022-09-09T10:03:30;21.40;83.10
35700;DHT22;21818;51.078;12.108;2022-09-09T10:05:56;21.40;82.90
35700;DHT22;21818;51.078;12.108;2022-09-09T10:08:26;21.40;83.00
35700;DHT22;21818;51.078;12.108;2022-09-09T10:11:02;21.40;83.00
35700;DHT22;21818;51.078;12.108;2022-09-09T10:17:04;21.50;82.80
35700;DHT22;21818;51.078;12.108;2022-09-09T10:19:35;21.50;82.90
35700;DHT22;21818;51.078;12.108;2022-09-09T10:36:14;21.60;82.10
35700;DHT22;21818;51.078;12.108;2022-09-09T10:44:51;21.60;82.00
35700;DHT22;21818;51.078;12.108;2022-09-09T10:47:33;21.70;82.00
35700;DHT22;21818;51.078;12.108;2022-09-09T10:52:51;21.70;81.60
35700;DHT22;21818;51.078;12.108;2022-09-09T10:55:26;21.80;81.60
35700;DHT22;21818;51.078;12.108;2022-09-09T10:57:55;21.80;81.60
35700;DHT22;21818;51.078;12.108;2022-09-09T11:00:23;21.80;81.50
35700;DHT22;21818;51.078;12.108;2022-09-09T11:03:15;21.80;81.50
35700;DHT22;21818;51.078;12.108;2022-09-09T11:05:47;21.80;81.20
35700;DHT22;21818;51.078;12.108;2022-09-09T11:08:21;21.80;81.30
35700;DHT22;21818;51.078;12.108;2022-09-09T11:11:17;21.90;81.00
35700;DHT22;21818;51.078;12.108;2022-09-09T11:16:40;21.90;81.10
35700;DHT22;21818;51.078;12.108;2022-09-09T11:19:15;21.90;80.90
35700;DHT22;21818;51.078;12.108;2022-09-09T11:21:45;21.90;80.90
35700;DHT22;21818;51.078;12.108;2022-09-09T11:24:41;21.90;80.80
35700;DHT22;21818;51.078;12.108;2022-09-09T11:27:31;22.00;80.70
35700;DHT22;21818;51.078;12.108;2022-09-09T11:30:18;22.00;80.70
35700;DHT22;21818;51.078;12.108;2022-09-09T11:33:04;22.00;80.70
35700;DHT22;21818;51.078;12.108;2022-09-09T11:38:28;22.10;80.50
35700;DHT22;21818;51.078;12.108;2022-09-09T11:41:01;22.10;80.40
35700;DHT22;21818;51.078;12.108;2022-09-09T11:43:38;22.10;80.30
35700;DHT22;21818;51.078;12.108;2022-09-09T11:46:06;22.20;80.20
35700;DHT22;21818;51.078;12.108;2022-09-09T11:48:41;22.20;80.00
35700;DHT22;21818;51.078;12.108;2022-09-09T11:53:51;22.30;79.60
35700;DHT22;21818;51.078;12.108;2022-09-09T11:56:43;22.50;78.80
35700;DHT22;21818;51.078;12.108;2022-09-09T11:59:27;22.70;78.00
35700;DHT22;21818;51.078;12.108;2022-09-09T12:02:13;23.10;77.10
35700;DHT22;21818;51.078;12.108;2022-09-09T12:05:05;23.30;76.30
35700;DHT22;21818;51.078;12.108;2022-09-09T12:07:50;23.70;75.30
35700;DHT22;21818;51.078;12.108;2022-09-09T12:10:23;23.80;74.60
35700;DHT22;21818;51.078;12.108;2022-09-09T12:12:50;24.00;74.20
35700;DHT22;21818;51.078;12.108;2022-09-09T12:15:18;24.10;73.80
35700;DHT22;21818;51.078;12.108;2022-09-09T12:17:50;24.10;74.00
35700;DHT22;21818;51.078;12.108;2022-09-09T12:22:50;24.10;73.70
35700;DHT22;21818;51.078;12.108;2022-09-09T12:25:56;24.30;73.50
35700;DHT22;21818;51.078;12.108;2022-09-09T12:28:39;24.00;73.40
35700;DHT22;21818;51.078;12.108;2022-09-09T12:31:16;23.70;74.90
35700;DHT22;21818;51.078;12.108;2022-09-09T12:33:45;24.00;74.20
35700;DHT22;21818;51.078;12.108;2022-09-09T12:36:19;24.10;73.90
35700;DHT22;21818;51.078;12.108;2022-09-09T12:38:47;24.20;73.70
35700;DHT22;21818;51.078;12.108;2022-09-09T12:41:24;24.20;74.00
35700;DHT22;21818;51.078;12.108;2022-09-09T12:43:51;24.10;74.00
35700;DHT22;21818;51.078;12.108;2022-09-09T12:46:27;24.00;74.30
35700;DHT22;21818;51.078;12.108;2022-09-09T12:48:57;24.00;74.40
35700;DHT22;21818;51.078;12.108;2022-09-09T12:51:29;23.90;74.70
35700;DHT22;21818;51.078;12.108;2022-09-09T12:53:56;23.90;74.70
35700;DHT22;21818;51.078;12.108;2022-09-09T12:56:25;23.90;74.90
35700;DHT22;21818;51.078;12.108;2022-09-09T12:58:53;23.80;74.70
35700;DHT22;21818;51.078;12.108;2022-09-09T13:01:25;23.80;74.80
35700;DHT22;21818;51.078;12.108;2022-09-09T13:03:51;23.70;74.70
35700;DHT22;21818;51.078;12.108;2022-09-09T13:06:23;23.60;74.60
35700;DHT22;21818;51.078;12.108;2022-09-09T13:08:51;23.50;74.50
35700;DHT22;21818;51.078;12.108;2022-09-09T13:11:23;23.40;74.50
35700;DHT22;21818;51.078;12.108;2022-09-09T13:13:54;23.30;74.40
35700;DHT22;21818;51.078;12.108;2022-09-09T13:16:26;23.30;74.40
35700;DHT22;21818;51.078;12.108;2022-09-09T13:19:00;23.20;74.40
35700;DHT22;21818;51.078;12.108;2022-09-09T13:21:38;23.10;74.40
35700;DHT22;21818;51.078;12.108;2022-09-09T13:24:31;23.10;74.30
35700;DHT22;21818;51.078;12.108;2022-09-09T13:26:59;23.10;74.30
35700;DHT22;21818;51.078;12.108;2022-09-09T13:29:27;23.00;74.40
35700;DHT22;21818;51.078;12.108;2022-09-09T13:31:53;23.00;74.40
35700;DHT22;21818;51.078;12.108;2022-09-09T13:34:30;22.90;74.30
35700;DHT22;21818;51.078;12.108;2022-09-09T13:37:00;22.90;74.20
35700;DHT22;21818;51.078;12.108;2022-09-09T13:39:33;22.90;74.30
35700;DHT22;21818;51.078;12.108;2022-09-09T13:41:59;22.80;74.30
35700;DHT22;21818;51.078;12.108;2022-09-09T13:44:30;22.80;74.30
35700;DHT22;21818;51.078;12.108;2022-09-09T13:47:06;22.80;74.30
35700;DHT22;21818;51.078;12.108;2022-09-09T13:49:32;22.80;74.40
35700;DHT22;21818;51.078;12.108;2022-09-09T13:52:13;22.70;74.30
35700;DHT22;21818;51.078;12.108;2022-09-09T13:54:40;22.70;74.20
35700;DHT22;21818;51.078;12.108;2022-09-09T13:57:12;22.70;74.30
35700;DHT22;21818;51.078;12.108;2022-09-09T13:59:39;22.70;74.30
35700;DHT22;21818;51.078;12.108;2022-09-09T14:02:04;22.70;74.30
35700;DHT22;21818;51.078;12.108;2022-09-09T14:04:30;22.70;74.20
35700;DHT22;21818;51.078;12.108;2022-09-09T14:06:56;22.70;74.20
35700;DHT22;21818;51.078;12.108;2022-09-09T14:09:21;22.70;74.20
35700;DHT22;21818;51.078;12.108;2022-09-09T14:11:47;22.70;74.10
35700;DHT22;21818;51.078;12.108;2022-09-09T14:14:13;22.70;74.10
35700;DHT22;21818;51.078;12.108;2022-09-09T14:16:38;22.70;74.10
35700;DHT22;21818;51.078;12.108;2022-09-09T14:19:04;22.60;74.00
35700;DHT22;21818;51.078;12.108;2022-09-09T14:21:29;22.60;74.00
35700;DHT22;21818;51.078;12.108;2022-09-09T14:23:55;22.60;73.90
35700;DHT22;21818;51.078;12.108;2022-09-09T14:26:23;22.60;73.80
35700;DHT22;21818;51.078;12.108;2022-09-09T14:28:49;22.60;74.40
35700;DHT22;21818;51.078;12.108;2022-09-09T14:31:16;22.60;73.80
35700;DHT22;21818;51.078;12.108;2022-09-09T14:33:43;22.70;73.90
35700;DHT22;21818;51.078;12.108;2022-09-09T14:36:09;22.70;74.10
35700;DHT22;21818;51.078;12.108;2022-09-09T14:38:37;22.70;74.10
35700;DHT22;21818;51.078;12.108;2022-09-09T14:41:09;22.80;74.00
35700;DHT22;21818;51.078;12.108;2022-09-09T14:43:35;22.90;74.10
35700;DHT22;21818;51.078;12.108;2022-09-09T14:48:32;23.10;73.80
35700;DHT22;21818;51.078;12.108;2022-09-09T14:51:14;23.10;73.60
35700;DHT22;21818;51.078;12.108;2022-09-09T14:53:41;23.10;73.60
35700;DHT22;21818;51.078;12.108;2022-09-09T14:56:10;23.10;73.50
35700;DHT22;21818;51.078;12.108;2022-09-09T14:58:36;23.20;73.50
35700;DHT22;21818;51.078;12.108;2022-09-09T15:01:08;23.30;73.40
35700;DHT22;21818;51.078;12.108;2022-09-09T15:03:36;23.30;73.20
35700;DHT22;21818;51.078;12.108;2022-09-09T15:06:11;23.40;73.10
35700;DHT22;21818;51.078;12.108;2022-09-09T15:08:39;23.40;72.90
35700;DHT22;21818;51.078;12.108;2022-09-09T15:11:06;23.40;72.90
35700;DHT22;21818;51.078;12.108;2022-09-09T15:13:35;23.50;72.80
35700;DHT22;21818;51.078;12.108;2022-09-09T15:16:10;23.50;72.70
35700;DHT22;21818;51.078;12.108;2022-09-09T15:18:36;23.40;72.60
35700;DHT22;21818;51.078;12.108;2022-09-09T15:21:12;23.40;72.60
35700;DHT22;21818;51.078;12.108;2022-09-09T15:23:38;23.40;72.50
35700;DHT22;21818;51.078;12.108;2022-09-09T15:26:05;23.40;72.60
35700;DHT22;21818;51.078;12.108;2022-09-09T15:28:35;23.40;73.10
35700;DHT22;21818;51.078;12.108;2022-09-09T15:31:23;23.40;72.60
35700;DHT22;21818;51.078;12.108;2022-09-09T15:36:24;23.30;72.50
35700;DHT22;21818;51.078;12.108;2022-09-09T15:38:51;23.20;72.40
35700;DHT22;21818;51.078;12.108;2022-09-09T15:41:18;23.20;72.30
35700;DHT22;21818;51.078;12.108;2022-09-09T15:43:45;23.20;72.20
35700;DHT22;21818;51.078;12.108;2022-09-09T15:46:22;23.20;72.20
35700;DHT22;21818;51.078;12.108;2022-09-09T15:48:57;23.10;72.30
35700;DHT22;21818;51.078;12.108;2022-09-09T15:51:24;23.10;72.40
35700;DHT22;21818;51.078;12.108;2022-09-09T15:53:54;23.10;72.30
35700;DHT22;21818;51.078;12.108;2022-09-09T15:56:21;23.10;72.10
35700;DHT22;21818;51.078;12.108;2022-09-09T15:58:47;23.10;72.10
35700;DHT22;21818;51.078;12.108;2022-09-09T16:01:12;23.10;72.10
35700;DHT22;21818;51.078;12.108;2022-09-09T16:03:40;23.00;72.60
35700;DHT22;21818;51.078;12.108;2022-09-09T16:06:08;23.00;71.90
35700;DHT22;21818;51.078;12.108;2022-09-09T16:08:36;23.00;71.80
35700;DHT22;21818;51.078;12.108;2022-09-09T16:11:15;23.00;71.70
35700;DHT22;21818;51.078;12.108;2022-09-09T16:13:43;23.00;71.60
35700;DHT22;21818;51.078;12.108;2022-09-09T16:16:13;23.00;71.50
35700;DHT22;21818;51.078;12.108;2022-09-09T16:18:48;23.00;71.20
35700;DHT22;21818;51.078;12.108;2022-09-09T16:21:17;23.00;71.00
35700;DHT22;21818;51.078;12.108;2022-09-09T16:23:43;23.00;70.80
35700;DHT22;21818;51.078;12.108;2022-09-09T16:26:14;23.10;70.70
35700;DHT22;21818;51.078;12.108;2022-09-09T16:28:40;23.10;70.50
35700;DHT22;21818;51.078;12.108;2022-09-09T16:31:07;23.10;70.30
35700;DHT22;21818;51.078;12.108;2022-09-09T16:33:33;23.10;70.00
35700;DHT22;21818;51.078;12.108;2022-09-09T16:36:05;23.10;69.90
35700;DHT22;21818;51.078;12.108;2022-09-09T16:38:31;23.00;70.10
35700;DHT22;21818;51.078;12.108;2022-09-09T16:41:00;23.00;70.00
35700;DHT22;21818;51.078;12.108;2022-09-09T16:43:26;23.00;70.00
35700;DHT22;21818;51.078;12.108;2022-09-09T16:45:51;23.00;69.80
35700;DHT22;21818;51.078;12.108;2022-09-09T16:48:17;23.00;70.00
35700;DHT22;21818;51.078;12.108;2022-09-09T16:50:42;23.10;70.00
35700;DHT22;21818;51.078;12.108;2022-09-09T16:53:08;23.10;69.90
35700;DHT22;21818;51.078;12.108;2022-09-09T16:55:41;23.10;69.90
35700;DHT22;21818;51.078;12.108;2022-09-09T16:58:10;23.10;69.90
35700;DHT22;21818;51.078;12.108;2022-09-09T17:00:36;23.10;69.80
35700;DHT22;21818;51.078;12.108;2022-09-09T17:03:01;23.10;69.80
35700;DHT22;21818;51.078;12.108;2022-09-09T17:05:28;23.00;69.60
35700;DHT22;21818;51.078;12.108;2022-09-09T17:07:54;23.00;69.70
35700;DHT22;21818;51.078;12.108;2022-09-09T17:10:23;23.00;69.70
35700;DHT22;21818;51.078;12.108;2022-09-09T17:12:49;23.00;69.70
35700;DHT22;21818;51.078;12.108;2022-09-09T17:15:14;23.00;69.70